createdAt,value
2017-05-13T00:00:45.446Z,985.33
2017-05-13T00:01:45.475Z,985.32
2017-05-13T00:02:45.504Z,985.32
2017-05-13T00:03:45.528Z,985.3
2017-05-13T00:04:45.558Z,985.34
2017-05-13T00:05:45.586Z,985.31
2017-05-13T00:06:45.609Z,985.35
2017-05-13T00:07:45.650Z,985.29
2017-05-13T00:08:45.672Z,985.29
2017-05-13T00:09:45.692Z,985.3
2017-05-13T00:10:45.727Z,985.35
2017-05-13T00:11:45.788Z,985.37
2017-05-13T00:12:45.779Z,985.39
2017-05-13T00:13:45.800Z,985.37
2017-05-13T00:14:45.833Z,985.38
2017-05-13T00:15:45.863Z,985.37
2017-05-13T00:16:45.886Z,985.43
2017-05-13T00:17:45.919Z,985.4
2017-05-13T00:18:45.944Z,985.39
2017-05-13T00:19:45.973Z,985.38
2017-05-13T00:20:46.200Z,985.4
2017-05-13T00:21:46.025Z,985.4
2017-05-13T00:22:46.055Z,985.37
2017-05-13T00:23:46.080Z,985.45
2017-05-13T00:24:46.112Z,985.39
2017-05-13T00:25:46.337Z,985.45
2017-05-13T00:26:46.166Z,985.43
2017-05-13T00:27:46.195Z,985.43
2017-05-13T00:28:46.225Z,985.44
2017-05-13T00:29:46.248Z,985.44
2017-05-13T00:30:46.529Z,985.41
2017-05-13T00:31:46.305Z,985.45
2017-05-13T00:32:46.330Z,985.43
2017-05-13T00:33:46.359Z,985.45
2017-05-13T00:34:46.388Z,985.45
2017-05-13T00:35:46.615Z,985.44
2017-05-13T00:36:46.441Z,985.4
2017-05-13T00:37:46.465Z,985.39
2017-05-13T00:38:46.495Z,985.43
2017-05-13T00:39:46.524Z,985.41
2017-05-13T00:40:46.805Z,985.37
2017-05-13T00:41:46.582Z,985.35
2017-05-13T00:42:46.610Z,985.35
2017-05-13T00:43:46.634Z,985.33
2017-05-13T00:44:46.664Z,985.32
2017-05-13T00:45:46.893Z,985.34
2017-05-13T00:46:46.716Z,985.39
2017-05-13T00:47:46.746Z,985.35
2017-05-13T00:48:46.771Z,985.39
2017-05-13T00:49:46.805Z,985.35
2017-05-13T00:50:46.829Z,985.36
2017-05-13T00:51:46.858Z,985.35
2017-05-13T00:52:46.886Z,985.37
2017-05-13T00:53:46.910Z,985.37
2017-05-13T00:54:46.936Z,985.45
2017-05-13T00:55:46.964Z,985.43
2017-05-13T00:56:46.996Z,985.46
2017-05-13T00:57:47.022Z,985.42
2017-05-13T00:58:47.053Z,985.41
2017-05-13T00:59:47.079Z,985.42
2017-05-13T01:00:47.105Z,985.45
2017-05-13T01:01:47.133Z,985.47
2017-05-13T01:02:47.161Z,985.48
2017-05-13T01:03:47.191Z,985.48
2017-05-13T01:04:47.214Z,985.5
2017-05-13T01:05:47.243Z,985.51
2017-05-13T01:06:47.272Z,985.53
2017-05-13T01:07:47.301Z,985.56
2017-05-13T01:08:47.326Z,985.6
2017-05-13T01:09:47.354Z,985.63
2017-05-13T01:10:47.382Z,985.64
2017-05-13T01:11:47.409Z,985.63
2017-05-13T01:12:47.437Z,985.61
2017-05-13T01:13:47.467Z,985.63
2017-05-13T01:14:47.494Z,985.64
2017-05-13T01:15:47.518Z,985.67
2017-05-13T01:16:47.548Z,985.67
2017-05-13T01:17:47.576Z,985.69
2017-05-13T01:18:47.602Z,985.71
2017-05-13T01:19:47.631Z,985.72
2017-05-13T01:20:47.658Z,985.73
2017-05-13T01:21:47.684Z,985.73
2017-05-13T01:22:47.713Z,985.71
2017-05-13T01:23:47.741Z,985.77
2017-05-13T01:24:47.771Z,985.81
2017-05-13T01:25:47.794Z,985.81
2017-05-13T01:26:47.823Z,985.77
2017-05-13T01:27:47.854Z,985.79
2017-05-13T01:28:47.873Z,985.78
2017-05-13T01:29:47.907Z,985.79
2017-05-13T01:30:47.930Z,985.81
2017-05-13T01:31:47.959Z,985.78
2017-05-13T01:32:47.989Z,985.81
2017-05-13T01:33:48.017Z,985.82
2017-05-13T01:34:48.043Z,985.82
2017-05-13T01:35:48.072Z,985.77
2017-05-13T01:36:48.099Z,985.77
2017-05-13T01:37:48.128Z,985.8
2017-05-13T01:38:48.148Z,985.77
2017-05-13T01:39:48.182Z,985.78
2017-05-13T01:40:48.214Z,985.8
2017-05-13T01:41:48.275Z,985.76
2017-05-13T01:42:48.264Z,985.78
2017-05-13T01:43:48.292Z,985.76
2017-05-13T01:44:48.318Z,985.79
2017-05-13T01:45:48.347Z,985.77
2017-05-13T01:46:48.374Z,985.8
2017-05-13T01:47:48.405Z,985.81
2017-05-13T01:48:48.425Z,985.78
2017-05-13T01:49:48.464Z,985.79
2017-05-13T01:50:48.482Z,985.81
2017-05-13T01:51:48.515Z,985.83
2017-05-13T01:52:48.538Z,985.86
2017-05-13T01:53:48.565Z,985.87
2017-05-13T01:54:48.597Z,985.86
2017-05-13T01:55:48.623Z,985.84
2017-05-13T01:56:48.651Z,985.87
2017-05-13T01:57:48.680Z,985.89
2017-05-13T01:58:48.706Z,985.9
2017-05-13T01:59:48.731Z,985.92
2017-05-13T02:00:48.761Z,985.93
2017-05-13T02:01:48.841Z,985.96
2017-05-13T02:02:48.814Z,985.98
2017-05-13T02:03:48.841Z,985.99
2017-05-13T02:04:48.874Z,985.96
2017-05-13T02:05:48.895Z,985.96
2017-05-13T02:06:48.926Z,986
2017-05-13T02:07:48.955Z,986
2017-05-13T02:08:48.983Z,986.01
2017-05-13T02:09:49.008Z,986.02
2017-05-13T02:10:49.038Z,986.03
2017-05-13T02:11:49.062Z,986.06
2017-05-13T02:12:49.092Z,986.07
2017-05-13T02:13:49.115Z,986.1
2017-05-13T02:14:49.154Z,986.07
2017-05-13T02:15:49.173Z,986.08
2017-05-13T02:16:49.202Z,986.09
2017-05-13T02:17:49.231Z,986.1
2017-05-13T02:18:49.256Z,986.12
2017-05-13T02:19:49.285Z,986.13
2017-05-13T02:20:49.314Z,986.11
2017-05-13T02:21:49.337Z,986.13
2017-05-13T02:22:49.368Z,986.15
2017-05-13T02:23:49.392Z,986.21
2017-05-13T02:24:49.417Z,986.21
2017-05-13T02:25:49.449Z,986.23
2017-05-13T02:26:49.477Z,986.22
2017-05-13T02:27:49.506Z,986.24
2017-05-13T02:28:49.531Z,986.25
2017-05-13T02:29:49.560Z,986.27
2017-05-13T02:30:49.589Z,986.25
2017-05-13T02:31:49.615Z,986.28
2017-05-13T02:32:49.641Z,986.24
2017-05-13T02:33:49.676Z,986.28
2017-05-13T02:34:49.692Z,986.31
2017-05-13T02:35:49.725Z,986.3
2017-05-13T02:36:49.753Z,986.34
2017-05-13T02:37:49.776Z,986.33
2017-05-13T02:38:49.806Z,986.29
2017-05-13T02:39:49.836Z,986.36
2017-05-13T02:40:49.861Z,986.34
2017-05-13T02:41:49.889Z,986.33
2017-05-13T02:42:49.919Z,986.34
2017-05-13T02:43:49.943Z,986.34
2017-05-13T02:44:49.971Z,986.36
2017-05-13T02:45:49.999Z,986.36
2017-05-13T02:46:50.276Z,986.43
2017-05-13T02:47:50.052Z,986.41
2017-05-13T02:48:50.083Z,986.42
2017-05-13T02:49:50.112Z,986.42
2017-05-13T02:50:50.137Z,986.45
2017-05-13T02:51:50.413Z,986.42
2017-05-13T02:52:50.220Z,986.46
2017-05-13T02:53:50.223Z,986.42
2017-05-13T02:54:50.247Z,986.44
2017-05-13T02:55:50.276Z,986.46
2017-05-13T02:56:50.552Z,986.45
2017-05-13T02:57:50.330Z,986.47
2017-05-13T02:58:50.358Z,986.48
2017-05-13T02:59:50.386Z,986.47
2017-05-13T03:00:50.412Z,986.47
2017-05-13T03:01:50.688Z,986.48
2017-05-13T03:02:50.470Z,986.48
2017-05-13T03:03:50.494Z,986.46
2017-05-13T03:04:50.522Z,986.44
2017-05-13T03:05:50.598Z,986.47
2017-05-13T03:06:50.824Z,986.46
2017-05-13T03:07:50.605Z,986.51
2017-05-13T03:08:50.634Z,986.53
2017-05-13T03:09:50.659Z,986.55
2017-05-13T03:10:50.688Z,986.54
2017-05-13T03:11:50.917Z,986.59
2017-05-13T03:12:50.739Z,986.6
2017-05-13T03:13:50.769Z,986.54
2017-05-13T03:14:50.797Z,986.54
2017-05-13T03:15:50.826Z,986.52
2017-05-13T03:16:50.853Z,986.53
2017-05-13T03:17:50.880Z,986.55
2017-05-13T03:18:50.909Z,986.58
2017-05-13T03:19:50.935Z,986.57
2017-05-13T03:20:50.963Z,986.53
2017-05-13T03:21:50.992Z,986.57
2017-05-13T03:22:51.016Z,986.54
2017-05-13T03:23:51.045Z,986.61
2017-05-13T03:24:51.075Z,986.61
2017-05-13T03:25:51.099Z,986.62
2017-05-13T03:26:51.127Z,986.61
2017-05-13T03:27:51.157Z,986.61
2017-05-13T03:28:51.186Z,986.63
2017-05-13T03:29:51.208Z,986.62
2017-05-13T03:30:51.239Z,986.65
2017-05-13T03:31:51.268Z,986.65
2017-05-13T03:32:51.292Z,986.71
2017-05-13T03:33:51.323Z,986.74
2017-05-13T03:34:51.350Z,986.72
2017-05-13T03:35:51.374Z,986.72
2017-05-13T03:36:51.402Z,986.77
2017-05-13T03:37:51.432Z,986.77
2017-05-13T03:38:51.455Z,986.78
2017-05-13T03:39:51.486Z,986.78
2017-05-13T03:40:51.515Z,986.79
2017-05-13T03:41:51.538Z,986.79
2017-05-13T03:42:51.568Z,986.76
2017-05-13T03:43:51.597Z,986.82
2017-05-13T03:44:51.624Z,986.83
2017-05-13T03:45:51.649Z,986.82
2017-05-13T03:46:51.680Z,986.8
2017-05-13T03:47:51.703Z,986.82
2017-05-13T03:48:51.731Z,986.86
2017-05-13T03:49:51.760Z,986.87
2017-05-13T03:50:51.785Z,986.84
2017-05-13T03:51:51.815Z,986.85
2017-05-13T03:52:51.843Z,986.89
2017-05-13T03:53:51.871Z,986.86
2017-05-13T03:54:51.891Z,986.9
2017-05-13T03:55:51.927Z,986.89
2017-05-13T03:56:51.948Z,986.88
2017-05-13T03:57:51.979Z,986.86
2017-05-13T03:58:52.008Z,986.89
2017-05-13T03:59:52.033Z,986.91
2017-05-13T04:00:52.061Z,986.94
2017-05-13T04:01:52.090Z,986.96
2017-05-13T04:02:52.121Z,987
2017-05-13T04:03:52.145Z,987
2017-05-13T04:04:52.172Z,987.03
2017-05-13T04:05:52.208Z,987.02
2017-05-13T04:06:52.225Z,987.04
2017-05-13T04:07:52.255Z,987.02
2017-05-13T04:08:52.283Z,987.02
2017-05-13T04:09:52.309Z,987.03
2017-05-13T04:10:52.338Z,987.04
2017-05-13T04:11:52.366Z,987.01
2017-05-13T04:12:52.391Z,987.03
2017-05-13T04:13:52.419Z,987.02
2017-05-13T04:14:52.447Z,987.01
2017-05-13T04:15:52.472Z,987.04
2017-05-13T04:16:52.502Z,987.04
2017-05-13T04:17:52.571Z,987.07
2017-05-13T04:18:52.552Z,987.1
2017-05-13T04:19:52.578Z,987.11
2017-05-13T04:20:52.613Z,987.17
2017-05-13T04:21:52.637Z,987.14
2017-05-13T04:22:52.667Z,987.14
2017-05-13T04:23:52.695Z,987.17
2017-05-13T04:24:52.724Z,987.19
2017-05-13T04:25:52.749Z,987.18
2017-05-13T04:26:52.776Z,987.21
2017-05-13T04:27:52.802Z,987.18
2017-05-13T04:28:52.829Z,987.2
2017-05-13T04:29:52.859Z,987.21
2017-05-13T04:30:52.889Z,987.21
2017-05-13T04:31:52.917Z,987.28
2017-05-13T04:32:52.941Z,987.26
2017-05-13T04:33:52.970Z,987.29
2017-05-13T04:34:52.992Z,987.3
2017-05-13T04:35:53.025Z,987.29
2017-05-13T04:36:53.053Z,987.31
2017-05-13T04:37:53.328Z,987.33
2017-05-13T04:38:53.106Z,987.35
2017-05-13T04:39:53.130Z,987.34
2017-05-13T04:40:53.159Z,987.4
2017-05-13T04:41:53.189Z,987.41
2017-05-13T04:42:53.464Z,987.45
2017-05-13T04:43:53.244Z,987.42
2017-05-13T04:44:53.272Z,987.43
2017-05-13T04:45:53.300Z,987.47
2017-05-13T04:46:53.324Z,987.46
2017-05-13T04:47:53.602Z,987.5
2017-05-13T04:48:53.382Z,987.49
2017-05-13T04:49:53.407Z,987.54
2017-05-13T04:50:53.436Z,987.54
2017-05-13T04:51:53.471Z,987.51
2017-05-13T04:52:53.688Z,987.53
2017-05-13T04:53:53.518Z,987.57
2017-05-13T04:54:53.547Z,987.58
2017-05-13T04:55:53.572Z,987.57
2017-05-13T04:56:53.602Z,987.62
2017-05-13T04:57:53.876Z,987.61
2017-05-13T04:58:53.654Z,987.64
2017-05-13T04:59:53.682Z,987.65
2017-05-13T05:00:53.711Z,987.64
2017-05-13T05:01:53.739Z,987.71
2017-05-13T05:02:54.012Z,987.66
2017-05-13T05:03:53.792Z,987.7
2017-05-13T05:04:53.817Z,987.76
2017-05-13T05:05:53.846Z,987.79
2017-05-13T05:06:53.875Z,987.81
2017-05-13T05:07:53.905Z,987.85
2017-05-13T05:08:53.933Z,987.84
2017-05-13T05:09:53.957Z,987.83
2017-05-13T05:10:53.987Z,987.84
2017-05-13T05:11:54.016Z,987.84
2017-05-13T05:12:54.041Z,987.81
2017-05-13T05:13:54.069Z,987.82
2017-05-13T05:14:54.099Z,987.81
2017-05-13T05:15:54.123Z,987.8
2017-05-13T05:16:54.151Z,987.84
2017-05-13T05:17:54.180Z,987.83
2017-05-13T05:18:54.204Z,987.83
2017-05-13T05:19:54.233Z,987.85
2017-05-13T05:20:54.263Z,987.89
2017-05-13T05:21:54.287Z,987.88
2017-05-13T05:22:54.317Z,987.96
2017-05-13T05:23:54.345Z,987.95
2017-05-13T05:24:54.370Z,987.95
2017-05-13T05:25:54.399Z,987.99
2017-05-13T05:26:54.427Z,987.99
2017-05-13T05:27:54.450Z,988
2017-05-13T05:28:54.480Z,988.03
2017-05-13T05:29:54.509Z,988.03
2017-05-13T05:30:54.532Z,988.06
2017-05-13T05:31:54.562Z,988.07
2017-05-13T05:32:54.592Z,988.1
2017-05-13T05:33:54.621Z,988.12
2017-05-13T05:34:54.645Z,988.14
2017-05-13T05:35:54.675Z,988.11
2017-05-13T05:36:54.702Z,988.16
2017-05-13T05:37:54.728Z,988.16
2017-05-13T05:38:54.756Z,988.18
2017-05-13T05:39:54.785Z,988.18
2017-05-13T05:40:54.809Z,988.19
2017-05-13T05:41:54.838Z,988.19
2017-05-13T05:42:54.867Z,988.21
2017-05-13T05:43:54.891Z,988.23
2017-05-13T05:44:54.920Z,988.23
2017-05-13T05:45:54.944Z,988.18
2017-05-13T05:46:54.975Z,988.24
2017-05-13T05:47:55.003Z,988.21
2017-05-13T05:48:55.031Z,988.18
2017-05-13T05:49:55.056Z,988.18
2017-05-13T05:50:55.089Z,988.2
2017-05-13T05:51:55.114Z,988.21
2017-05-13T05:52:55.140Z,988.18
2017-05-13T05:53:55.169Z,988.19
2017-05-13T05:54:55.195Z,988.21
2017-05-13T05:55:55.216Z,988.23
2017-05-13T05:56:55.251Z,988.21
2017-05-13T05:57:55.279Z,988.23
2017-05-13T05:58:55.340Z,988.27
2017-05-13T05:59:55.332Z,988.23
2017-05-13T06:00:55.356Z,988.22
2017-05-13T06:01:55.385Z,988.25
2017-05-13T06:02:55.413Z,988.27
2017-05-13T06:03:55.442Z,988.25
2017-05-13T06:04:55.468Z,988.29
2017-05-13T06:05:55.497Z,988.27
2017-05-13T06:06:55.525Z,988.29
2017-05-13T06:07:55.550Z,988.32
2017-05-13T06:08:55.579Z,988.27
2017-05-13T06:09:55.607Z,988.32
2017-05-13T06:10:55.636Z,988.3
2017-05-13T06:11:55.661Z,988.32
2017-05-13T06:12:55.689Z,988.35
2017-05-13T06:13:55.718Z,988.38
2017-05-13T06:14:55.743Z,988.38
2017-05-13T06:15:55.773Z,988.43
2017-05-13T06:16:55.802Z,988.46
2017-05-13T06:17:55.829Z,988.48
2017-05-13T06:18:55.854Z,988.49
2017-05-13T06:19:55.885Z,988.51
2017-05-13T06:20:55.909Z,988.49
2017-05-13T06:21:55.936Z,988.51
2017-05-13T06:22:55.966Z,988.47
2017-05-13T06:23:55.995Z,988.49
2017-05-13T06:24:56.020Z,988.51
2017-05-13T06:25:56.049Z,988.51
2017-05-13T06:26:56.078Z,988.5
2017-05-13T06:27:56.102Z,988.5
2017-05-13T06:28:56.130Z,988.55
2017-05-13T06:29:56.160Z,988.58
2017-05-13T06:30:56.180Z,988.57
2017-05-13T06:31:56.212Z,988.59
2017-05-13T06:32:56.241Z,988.57
2017-05-13T06:33:56.273Z,988.55
2017-05-13T06:34:56.296Z,988.58
2017-05-13T06:35:56.316Z,988.58
2017-05-13T06:36:56.353Z,988.6
2017-05-13T06:37:56.380Z,988.6
2017-05-13T06:38:56.655Z,988.63
2017-05-13T06:39:56.436Z,988.63
2017-05-13T06:40:56.463Z,988.66
2017-05-13T06:41:56.493Z,988.68
2017-05-13T06:42:56.518Z,988.65
2017-05-13T06:43:56.746Z,988.68
2017-05-13T06:44:56.575Z,988.64
2017-05-13T06:45:56.596Z,988.65
2017-05-13T06:46:56.628Z,988.68
2017-05-13T06:47:56.658Z,988.74
2017-05-13T06:48:56.886Z,988.69
2017-05-13T06:49:56.711Z,988.7
2017-05-13T06:50:56.740Z,988.69
2017-05-13T06:51:56.769Z,988.68
2017-05-13T06:52:56.793Z,988.68
2017-05-13T06:53:57.021Z,988.72
2017-05-13T06:54:56.850Z,988.69
2017-05-13T06:55:56.878Z,988.71
2017-05-13T06:56:56.904Z,988.73
2017-05-13T06:57:56.933Z,988.73
2017-05-13T06:58:56.961Z,988.76
2017-05-13T06:59:56.981Z,988.8
2017-05-13T07:00:57.011Z,988.78
2017-05-13T07:01:57.044Z,988.8
2017-05-13T07:02:57.074Z,988.84
2017-05-13T07:03:57.097Z,988.81
2017-05-13T07:04:57.125Z,988.82
2017-05-13T07:05:57.155Z,988.8
2017-05-13T07:06:57.184Z,988.82
2017-05-13T07:07:57.208Z,988.84
2017-05-13T07:08:57.241Z,988.84
2017-05-13T07:09:57.266Z,988.88
2017-05-13T07:10:57.286Z,988.92
2017-05-13T07:11:57.318Z,988.91
2017-05-13T07:12:57.348Z,988.86
2017-05-13T07:13:57.377Z,988.88
2017-05-13T07:14:57.402Z,988.91
2017-05-13T07:15:57.431Z,988.87
2017-05-13T07:16:57.461Z,988.9
2017-05-13T07:17:57.487Z,988.93
2017-05-13T07:18:57.513Z,988.9
2017-05-13T07:19:57.542Z,988.95
2017-05-13T07:20:57.570Z,988.97
2017-05-13T07:21:57.595Z,988.99
2017-05-13T07:22:57.623Z,988.99
2017-05-13T07:23:57.652Z,988.94
2017-05-13T07:24:57.680Z,988.94
2017-05-13T07:25:57.707Z,988.93
2017-05-13T07:26:57.736Z,988.99
2017-05-13T07:27:57.764Z,988.97
2017-05-13T07:28:57.793Z,988.96
2017-05-13T07:29:57.817Z,988.99
2017-05-13T07:30:57.845Z,988.99
2017-05-13T07:31:57.874Z,989.02
2017-05-13T07:32:57.903Z,989.05
2017-05-13T07:33:57.927Z,989.1
2017-05-13T07:34:57.956Z,989.13
2017-05-13T07:35:57.985Z,989.19
2017-05-13T07:36:58.011Z,989.18
2017-05-13T07:37:58.039Z,989.17
2017-05-13T07:38:58.069Z,989.2
2017-05-13T07:39:58.096Z,989.22
2017-05-13T07:40:58.121Z,989.22
2017-05-13T07:41:58.150Z,989.25
2017-05-13T07:42:58.178Z,989.25
2017-05-13T07:43:58.208Z,989.24
2017-05-13T07:44:58.232Z,989.25
2017-05-13T07:45:58.256Z,989.25
2017-05-13T07:46:58.289Z,989.27
2017-05-13T07:47:58.319Z,989.25
2017-05-13T07:48:58.344Z,989.31
2017-05-13T07:49:58.378Z,989.27
2017-05-13T07:50:58.401Z,989.28
2017-05-13T07:51:58.431Z,989.29
2017-05-13T07:52:58.458Z,989.3
2017-05-13T07:53:58.483Z,989.34
2017-05-13T07:54:58.513Z,989.32
2017-05-13T07:55:58.539Z,989.33
2017-05-13T07:56:58.570Z,989.34
2017-05-13T07:57:58.598Z,989.38
2017-05-13T07:58:58.622Z,989.34
2017-05-13T07:59:58.648Z,989.36
2017-05-13T08:00:58.678Z,989.36
2017-05-13T08:01:58.710Z,989.36
2017-05-13T08:02:58.737Z,989.39
2017-05-13T08:03:58.763Z,989.41
2017-05-13T08:04:58.791Z,989.38
2017-05-13T08:05:58.823Z,989.42
2017-05-13T08:06:58.845Z,989.45
2017-05-13T08:07:58.879Z,989.43
2017-05-13T08:08:58.907Z,989.41
2017-05-13T08:09:58.932Z,989.46
2017-05-13T08:10:58.960Z,989.43
2017-05-13T08:11:58.989Z,989.47
2017-05-13T08:12:59.018Z,989.51
2017-05-13T08:13:59.047Z,989.53
2017-05-13T08:14:59.076Z,989.56
2017-05-13T08:15:59.105Z,989.56
2017-05-13T08:16:59.129Z,989.6
2017-05-13T08:17:59.154Z,989.56
2017-05-13T08:18:59.186Z,989.54
2017-05-13T08:19:59.466Z,989.52
2017-05-13T08:20:59.243Z,989.54
2017-05-13T08:21:59.270Z,989.58
2017-05-13T08:22:59.297Z,989.59
2017-05-13T08:23:59.327Z,989.6
2017-05-13T08:24:59.607Z,989.59
2017-05-13T08:25:59.384Z,989.61
2017-05-13T08:26:59.412Z,989.61
2017-05-13T08:27:59.441Z,989.64
2017-05-13T08:28:59.469Z,989.66
2017-05-13T08:29:59.695Z,989.69
2017-05-13T08:30:59.524Z,989.65
2017-05-13T08:31:59.553Z,989.64
2017-05-13T08:32:59.581Z,989.64
2017-05-13T08:33:59.610Z,989.68
2017-05-13T08:34:59.890Z,989.73
2017-05-13T08:35:59.667Z,989.79
2017-05-13T08:36:59.696Z,989.77
2017-05-13T08:37:59.721Z,989.77
2017-05-13T08:38:59.750Z,989.76
2017-05-13T08:39:59.978Z,989.77
2017-05-13T08:40:59.809Z,989.76
2017-05-13T08:41:59.837Z,989.76
2017-05-13T08:42:59.865Z,989.79
2017-05-13T08:43:59.895Z,989.81
2017-05-13T08:45:00.116Z,989.81
2017-05-13T08:45:59.948Z,989.89
2017-05-13T08:46:59.975Z,989.91
2017-05-13T08:48:00.005Z,989.92
2017-05-13T08:49:00.033Z,989.93
2017-05-13T08:50:00.263Z,989.96
2017-05-13T08:51:00.092Z,989.95
2017-05-13T08:52:00.121Z,989.88
2017-05-13T08:53:00.143Z,989.82
2017-05-13T08:54:00.175Z,989.9
2017-05-13T08:55:00.457Z,989.92
2017-05-13T08:56:00.232Z,989.93
2017-05-13T08:57:00.260Z,989.86
2017-05-13T08:58:00.287Z,989.9
2017-05-13T08:59:00.314Z,989.89
2017-05-13T09:00:00.545Z,989.86
2017-05-13T09:01:00.376Z,989.94
2017-05-13T09:02:00.404Z,989.92
2017-05-13T09:03:00.433Z,989.93
2017-05-13T09:04:00.459Z,989.93
2017-05-13T09:05:00.689Z,989.93
2017-05-13T09:06:00.519Z,989.94
2017-05-13T09:07:00.546Z,989.98
2017-05-13T09:08:00.573Z,990.01
2017-05-13T09:09:00.602Z,990.02
2017-05-13T09:10:00.829Z,989.96
2017-05-13T09:11:00.660Z,990.02
2017-05-13T09:12:00.688Z,990.04
2017-05-13T09:13:00.716Z,990.03
2017-05-13T09:14:00.745Z,990.03
2017-05-13T09:15:00.971Z,990.03
2017-05-13T09:16:00.802Z,990.04
2017-05-13T09:17:00.832Z,990.07
2017-05-13T09:18:00.860Z,990.07
2017-05-13T09:19:00.889Z,990.05
2017-05-13T09:20:01.118Z,990.1
2017-05-13T09:21:00.946Z,990.04
2017-05-13T09:22:00.971Z,990
2017-05-13T09:23:00.997Z,990
2017-05-13T09:24:01.029Z,990.01
2017-05-13T09:25:01.261Z,990.02
2017-05-13T09:26:01.088Z,990.03
2017-05-13T09:27:01.116Z,989.97
2017-05-13T09:28:01.140Z,989.98
2017-05-13T09:29:01.174Z,989.96
2017-05-13T09:30:01.404Z,990.05
2017-05-13T09:31:01.231Z,990.02
2017-05-13T09:32:01.259Z,989.99
2017-05-13T09:33:01.288Z,990.03
2017-05-13T09:34:01.318Z,990.05
2017-05-13T09:35:01.544Z,990.07
2017-05-13T09:36:01.376Z,990.02
2017-05-13T09:37:01.404Z,990.06
2017-05-13T09:38:01.433Z,990.08
2017-05-13T09:39:01.463Z,990.05
2017-05-13T09:40:01.692Z,990.1
2017-05-13T09:41:01.519Z,990.1
2017-05-13T09:42:01.542Z,990.09
2017-05-13T09:43:01.579Z,990.06
2017-05-13T09:44:01.605Z,990.06
2017-05-13T09:45:01.835Z,990.08
2017-05-13T09:46:01.667Z,990.2
2017-05-13T09:47:01.692Z,990.2
2017-05-13T09:48:01.721Z,990.2
2017-05-13T09:49:01.749Z,990.24
2017-05-13T09:50:01.979Z,990.21
2017-05-13T09:51:01.806Z,990.21
2017-05-13T09:52:01.836Z,990.16
2017-05-13T09:53:01.865Z,990.13
2017-05-13T09:54:01.894Z,990.14
2017-05-13T09:55:02.121Z,990.11
2017-05-13T09:56:01.953Z,990.04
2017-05-13T09:57:01.980Z,990.11
2017-05-13T09:58:02.020Z,990.14
2017-05-13T09:59:02.036Z,990.13
2017-05-13T10:00:02.265Z,990.12
2017-05-13T10:01:02.091Z,990.18
2017-05-13T10:02:02.125Z,990.13
2017-05-13T10:03:02.152Z,990.18
2017-05-13T10:04:02.181Z,990.16
2017-05-13T10:05:02.407Z,990.17
2017-05-13T10:06:02.234Z,990.13
2017-05-13T10:07:02.267Z,990.12
2017-05-13T10:08:02.293Z,990.1
2017-05-13T10:09:02.325Z,990.12
2017-05-13T10:10:02.604Z,990.16
2017-05-13T10:11:02.383Z,990.13
2017-05-13T10:12:02.414Z,990.14
2017-05-13T10:13:02.440Z,990.16
2017-05-13T10:14:02.469Z,990.16
2017-05-13T10:15:02.698Z,990.15
2017-05-13T10:16:02.526Z,990.16
2017-05-13T10:17:02.556Z,990.12
2017-05-13T10:18:02.585Z,990.15
2017-05-13T10:19:02.615Z,990.11
2017-05-13T10:20:02.889Z,990.17
2017-05-13T10:21:02.671Z,990.11
2017-05-13T10:22:02.700Z,990.19
2017-05-13T10:23:02.727Z,990.16
2017-05-13T10:24:02.757Z,990.12
2017-05-13T10:25:02.987Z,990.14
2017-05-13T10:26:02.813Z,990.18
2017-05-13T10:27:02.842Z,990.17
2017-05-13T10:28:02.872Z,990.19
2017-05-13T10:29:02.901Z,990.1
2017-05-13T10:30:03.129Z,990.07
2017-05-13T10:31:02.958Z,989.99
2017-05-13T10:32:02.986Z,990.01
2017-05-13T10:33:03.016Z,990.07
2017-05-13T10:34:03.044Z,990.01
2017-05-13T10:35:03.272Z,990.05
2017-05-13T10:36:03.102Z,990.1
2017-05-13T10:37:03.131Z,990.12
2017-05-13T10:38:03.159Z,990.14
2017-05-13T10:39:03.188Z,990.12
2017-05-13T10:40:03.416Z,990.15
2017-05-13T10:41:03.245Z,990.19
2017-05-13T10:42:03.274Z,990.17
2017-05-13T10:43:03.304Z,990.15
2017-05-13T10:44:03.329Z,990.13
2017-05-13T10:45:03.560Z,990.16
2017-05-13T10:46:03.390Z,990.16
2017-05-13T10:47:03.424Z,990.16
2017-05-13T10:48:03.446Z,990.16
2017-05-13T10:49:03.478Z,990.16
2017-05-13T10:50:03.704Z,990.17
2017-05-13T10:51:03.533Z,990.17
2017-05-13T10:52:03.562Z,990.15
2017-05-13T10:53:03.586Z,990.17
2017-05-13T10:54:03.619Z,990.12
2017-05-13T10:55:03.901Z,990.12
2017-05-13T10:56:03.679Z,990.08
2017-05-13T10:57:03.706Z,990.19
2017-05-13T10:58:03.737Z,990.07
2017-05-13T10:59:03.768Z,990.07
2017-05-13T11:00:03.998Z,990.09
2017-05-13T11:01:03.825Z,990.17
2017-05-13T11:02:03.854Z,990.05
2017-05-13T11:03:03.879Z,990.09
2017-05-13T11:04:03.911Z,990.07
2017-05-13T11:05:04.139Z,990.03
2017-05-13T11:06:03.970Z,990.02
2017-05-13T11:07:03.999Z,990.06
2017-05-13T11:08:04.024Z,990.06
2017-05-13T11:09:04.056Z,990.04
2017-05-13T11:10:04.331Z,990.02
2017-05-13T11:11:04.114Z,990.02
2017-05-13T11:12:04.142Z,989.95
2017-05-13T11:13:04.170Z,989.95
2017-05-13T11:14:04.203Z,989.91
2017-05-13T11:15:04.480Z,989.92
2017-05-13T11:16:04.262Z,989.92
2017-05-13T11:17:04.290Z,989.9
2017-05-13T11:18:04.315Z,989.96
2017-05-13T11:19:04.348Z,989.96
2017-05-13T11:20:04.627Z,989.91
2017-05-13T11:21:04.405Z,989.96
2017-05-13T11:22:04.434Z,990.06
2017-05-13T11:23:04.464Z,990.1
2017-05-13T11:24:04.491Z,990.09
2017-05-13T11:25:04.719Z,990.14
2017-05-13T11:26:04.549Z,990.12
2017-05-13T11:27:04.630Z,990.11
2017-05-13T11:28:04.607Z,990.06
2017-05-13T11:29:04.640Z,990.1
2017-05-13T11:30:04.865Z,990.23
2017-05-13T11:31:04.697Z,990.23
2017-05-13T11:32:04.725Z,990.23
2017-05-13T11:33:04.750Z,990.19
2017-05-13T11:34:04.784Z,990.24
2017-05-13T11:35:05.011Z,990.1
2017-05-13T11:36:04.838Z,990.09
2017-05-13T11:37:04.871Z,990.12
2017-05-13T11:38:04.898Z,990.09
2017-05-13T11:39:04.927Z,990.17
2017-05-13T11:40:05.154Z,990.1
2017-05-13T11:41:04.986Z,990.11
2017-05-13T11:42:05.014Z,990.25
2017-05-13T11:43:05.047Z,990.27
2017-05-13T11:44:05.076Z,990.04
2017-05-13T11:45:05.351Z,990.05
2017-05-13T11:46:05.133Z,990.08
2017-05-13T11:47:05.162Z,990.04
2017-05-13T11:48:05.189Z,990.06
2017-05-13T11:49:05.228Z,990.25
2017-05-13T11:50:05.452Z,990.25
2017-05-13T11:51:05.282Z,990.25
2017-05-13T11:52:05.311Z,990.25
2017-05-13T11:53:05.343Z,990.03
2017-05-13T11:54:05.372Z,990.32
2017-05-13T11:55:05.651Z,990.12
2017-05-13T11:56:05.429Z,990.09
2017-05-13T11:57:05.462Z,990.13
2017-05-13T11:58:05.490Z,990.06
2017-05-13T11:59:05.524Z,990.01
2017-05-13T12:00:05.808Z,990.01
2017-05-13T12:01:05.581Z,989.98
2017-05-13T12:02:05.614Z,989.95
2017-05-13T12:03:05.644Z,989.95
2017-05-13T12:04:05.675Z,989.94
2017-05-13T12:05:05.951Z,990.15
2017-05-13T12:06:05.732Z,990.14
2017-05-13T12:07:05.761Z,990.13
2017-05-13T12:08:05.796Z,990.12
2017-05-13T12:09:05.822Z,990.06
2017-05-13T12:10:06.056Z,990.07
2017-05-13T12:11:05.885Z,990.07
2017-05-13T12:12:05.917Z,990.06
2017-05-13T12:13:05.946Z,990.07
2017-05-13T12:14:05.975Z,990.02
2017-05-13T12:15:06.260Z,990.03
2017-05-13T12:16:06.040Z,990.03
2017-05-13T12:17:06.070Z,990.08
2017-05-13T12:18:06.101Z,990.08
2017-05-13T12:19:06.136Z,990.1
2017-05-13T12:20:06.422Z,990.14
2017-05-13T12:21:06.198Z,990.22
2017-05-13T12:22:06.226Z,990.25
2017-05-13T12:23:06.261Z,990.29
2017-05-13T12:24:06.296Z,990.4
2017-05-13T12:25:06.580Z,989.98
2017-05-13T12:26:06.363Z,990.09
2017-05-13T12:27:06.390Z,990.45
2017-05-13T12:28:06.423Z,990.11
2017-05-13T12:29:06.454Z,990.12
2017-05-13T12:30:06.739Z,990.45
2017-05-13T12:31:06.519Z,989.95
2017-05-13T12:32:06.554Z,990.02